Kirkland, WA

10:22 PM PST on March 05, 2015 (GMT -0800)
Kirkland, Wa | Change Station
CLOSE
Current Station
Personal Weather Station
Location: Kirkland, WA
Elevation: 233 ft
Nearby Weather Stations

Elev 233 ft 47.69 °N, 122.19 °W | Updated 0 second ago

Partly Cloudy
Partly Cloudy
42.9 °F
Feels Like 43 °F
N
0.0
Wind Variable Wind from North
Gusts 0.0 mph

Today
High -- | Low -- °F
--% Chance of Precip.
Yesterday
High -- | Low -- °F
Precip. -- in
6:41 AM 5:59 PM
Full, 100% visible
Pressure 30.40 in
Visibility 10.0 miles
Clouds Clear
Windchill 43 °F
Dew Point 33 °F
Humidity 67%
Rainfall in
Snow Depth Not available.
UV 0 out of 12
Pollen 7.40 out of 12
Air Quality Not available.
Flu Activity Not available.
METAR KBFI 060553Z 34003KT 10SM CLR 09/02 A3040 RMK AO2 SLP293 T00940017 10144 20089 51008

More Conditions Fewer Conditions

Pressure 30.40 in
Visibility 10.0 miles
Clouds Clear
Windchill 43 °F
Dew Point 33 °F
Humidity 67%
Rainfall in
Snow Depth Not available.
UV 0 out of 12
Pollen 7.40 out of 12
Air Quality Not available.
Flu Activity Not available.
METAR KBFI 060553Z 34003KT 10SM CLR 09/02 A3040 RMK AO2 SLP293 T00940017 10144 20089 51008

More Conditions Fewer Conditions

10-Day Weather Forecast

Almanac

Astronomy

Mar. 05, 2015 Rise Set
Actual Time
Civil Twilight
Nautical Twilight
Astronomical Twilight
Moon
Length of Visible Light
Length of Day
Tomorrow will be .
, % of the Moon is Illuminated

Today's Extremes

State Highs State Lows

Community

WunderPhotos

Upload Photos

1,803,195 photos uploaded!

WunderBlogs® & News

Nearby

Air Quality

  Air Quality AQ Index Pollutant
Not available.

Snow Depth

Station Depth Elevation

Earthquake Activity

City Distance Mag. Time & Date
Minimum magnitude displayed is 2.5.

Coastal Water Temperatures

Place Temperature

Nearby Weather Stations